Time;durP1;ratioP1;P1;durP2;ratioP2;P2;SDS_P1;SDS_P2;PMS_P1;PMS_P2;Temp;Humidity;BMP_temperature;BMP_pressure;BME280_temperature;BME280_humidity;BME280_pressure;Samples;Min_cycle;Max_cycle;Signal;HPM_P1;HPM_P2
2023/11/02 00:01:42;;;;;;;7.90;7.10;;;;;;;;;;4989866;28;20190;-63
2023/11/02 00:04:11;;;;;;;9.00;6.90;;;;;;;;;;4990167;28;20205;-64
2023/11/02 00:06:39;;;;;;;7.00;6.40;;;;;;;;;;4982013;28;20221;-63
2023/11/02 00:09:10;;;;;;;6.90;6.03;;;;;;;;;;4989909;28;20198;-63
2023/11/02 00:11:49;;;;;;;7.60;6.87;;;;;;;;;;4994058;28;20265;-63
2023/11/02 00:14:17;;;;;;;5.90;5.43;;;;;;;;;;4993560;28;20214;-64
2023/11/02 00:16:44;;;;;;;6.57;6.00;;;;;;;;;;4982434;28;20292;-63
2023/11/02 00:19:18;;;;;;;6.63;5.70;;;;;;;;;;4974388;28;20241;-64
2023/11/02 00:21:45;;;;;;;9.63;5.93;;;;;;;;;;4993990;28;20256;-63
2023/11/02 00:24:13;;;;;;;5.47;4.83;;;;;;;;;;4993394;28;20246;-63
2023/11/02 00:26:40;;;;;;;7.13;6.40;;;;;;;;;;4993647;28;20236;-63
2023/11/02 00:29:09;;;;;;;6.50;6.00;;;;;;;;;;4990794;28;20288;-63
2023/11/02 00:31:36;;;;;;;5.17;4.67;;;;;;;;;;4983020;28;20216;-63
2023/11/02 00:34:03;;;;;;;5.57;4.87;;;;;;;;;;4985230;28;20257;-63
2023/11/02 00:36:31;;;;;;;7.10;5.80;;;;;;;;;;5008627;23;20233;-61
2023/11/02 00:38:58;;;;;;;5.77;5.17;;;;;;;;;;4993960;28;20245;-61
2023/11/02 00:41:26;;;;;;;6.97;5.57;;;;;;;;;;4993740;28;20206;-61
2023/11/02 00:43:53;;;;;;;5.60;5.20;;;;;;;;;;4992681;28;20708;-61
2023/11/02 00:46:26;;;;;;;5.43;5.13;;;;;;;;;;4993923;28;20233;-61
2023/11/02 00:48:54;;;;;;;5.43;5.03;;;;;;;;;;4986015;28;20199;-61
2023/11/02 00:51:27;;;;;;;5.27;4.77;;;;;;;;;;4991615;28;20225;-61
2023/11/02 00:53:56;;;;;;;6.63;4.80;;;;;;;;;;4992908;28;20208;-60
2023/11/02 00:56:26;;;;;;;6.00;5.33;;;;;;;;;;4991457;28;20821;-61
2023/11/02 00:58:54;;;;;;;7.43;6.03;;;;;;;;;;4974427;28;20272;-61
2023/11/02 01:01:27;;;;;;;7.77;5.67;;;;;;;;;;4976003;28;20202;-61
2023/11/02 01:03:56;;;;;;;5.50;5.03;;;;;;;;;;4986958;28;20232;-61
2023/11/02 01:06:28;;;;;;;6.70;5.97;;;;;;;;;;4992100;28;20670;-61
2023/11/02 01:08:56;;;;;;;6.90;5.97;;;;;;;;;;4992278;28;20202;-61
2023/11/02 01:11:29;;;;;;;5.57;4.67;;;;;;;;;;4975245;28;20265;-61
2023/11/02 01:13:57;;;;;;;7.57;6.20;;;;;;;;;;4973540;28;20222;-61
2023/11/02 01:16:29;;;;;;;7.73;6.93;;;;;;;;;;4973499;28;20335;-61
2023/11/02 01:18:58;;;;;;;8.37;6.60;;;;;;;;;;4974454;28;20297;-61
2023/11/02 01:21:29;;;;;;;7.43;4.53;;;5.90;99.90;;;;;;4997323;28;20207;-61
2023/11/02 01:24:02;;;;;;;7.77;5.70;;;5.90;99.90;;;;;;4997666;28;20608;-61
2023/11/02 01:26:59;;;;;;;7.67;5.63;;;5.70;99.90;;;;;;4982119;28;20312;-61
2023/11/02 01:29:29;;;;;;;4.80;4.50;;;5.60;99.90;;;;;;4972067;28;20241;-61
2023/11/02 01:31:58;;;;;;;6.17;5.40;;;5.60;99.90;;;;;;4976596;28;20321;-61
2023/11/02 01:34:29;;;;;;;7.13;6.43;;;5.60;99.90;;;;;;4990834;28;20211;-61
2023/11/02 01:36:56;;;;;;;6.57;5.97;;;5.50;99.90;;;;;;4990861;28;20233;-61
2023/11/02 01:39:52;;;;;;;7.50;6.40;;;5.40;99.90;;;;;;4995817;28;20200;-61
2023/11/02 01:42:30;;;;;;;6.47;5.83;;;5.40;99.90;;;;;;4983410;28;20674;-61
2023/11/02 01:45:05;;;;;;;7.43;5.83;;;5.40;99.90;;;;;;4980448;28;20256;-61
2023/11/02 01:47:58;;;;;;;6.17;5.57;;;5.40;99.90;;;;;;4981385;28;20218;-61
2023/11/02 01:50:32;;;;;;;6.03;5.43;;;5.30;99.90;;;;;;4973114;28;20280;-61
2023/11/02 01:53:28;;;;;;;5.03;4.63;;;5.50;99.90;;;;;;4972246;28;20682;-61
2023/11/02 01:56:08;;;;;;;4.70;4.30;;;5.50;99.90;;;;;;4997245;28;20223;-61
2023/11/02 01:58:46;;;;;;;4.77;4.47;;;5.50;99.90;;;;;;4990897;28;20239;-61
2023/11/02 02:01:25;;;;;;;4.40;4.10;;;5.50;99.90;;;;;;4975895;28;20721;-61
2023/11/02 02:04:05;;;;;;;4.60;4.23;;;5.40;99.90;;;;;;4972610;28;20204;-61
2023/11/02 02:06:41;;;;;;;4.70;4.30;;;5.50;99.90;;;;;;4977695;28;20261;-61
2023/11/02 02:09:19;;;;;;;3.90;3.70;;;5.50;99.90;;;;;;4978435;28;20267;-61
2023/11/02 02:11:54;;;;;;;4.13;3.83;;;5.30;99.90;;;;;;4984021;28;20306;-61
2023/11/02 02:14:32;;;;;;;4.33;4.00;;;5.30;99.90;;;;;;4988638;28;20249;-61
2023/11/02 02:17:08;;;;;;;4.13;3.93;;;5.20;99.90;;;;;;4986844;28;20226;-61
2023/11/02 02:19:58;;;;;;;5.40;3.70;;;5.20;99.90;;;;;;4972688;28;20252;-61
2023/11/02 02:22:29;;;;;;;3.43;3.13;;;5.00;99.90;;;;;;4983955;28;20287;-61
2023/11/02 02:25:10;;;;;;;3.63;3.43;;;5.00;99.90;;;;;;4991994;28;20199;-61
2023/11/02 02:27:58;;;;;;;3.67;3.40;;;5.10;99.90;;;;;;4988168;28;20202;-61
2023/11/02 02:30:59;;;;;;;3.90;3.60;;;5.10;99.90;;;;;;4990833;28;20202;-61
2023/11/02 02:33:44;;;;;;;4.63;4.27;;;4.90;99.90;;;;;;4990269;28;20261;-61
2023/11/02 02:36:14;;;;;;;4.17;3.97;;;5.00;99.90;;;;;;4988569;28;20283;-61
2023/11/02 02:38:46;;;;;;;4.57;3.87;;;5.10;99.90;;;;;;4992477;28;20241;-61
2023/11/02 02:41:17;;;;;;;4.03;3.83;;;5.00;99.90;;;;;;4992532;28;20614;-61
2023/11/02 02:43:45;;;;;;;4.97;4.47;;;5.10;99.90;;;;;;4991868;28;20292;-61
2023/11/02 02:46:17;;;;;;;4.63;4.30;;;5.00;99.90;;;;;;4990068;28;20254;-61
2023/11/02 02:48:44;;;;;;;3.97;3.60;;;4.90;99.90;;;;;;4995120;28;20584;-61
2023/11/02 02:51:13;;;;;;;4.17;3.77;;;5.00;99.90;;;;;;4983864;28;20276;-61
2023/11/02 02:53:42;;;;;;;4.73;4.37;;;5.00;99.90;;;;;;4991788;28;20241;-61
2023/11/02 02:56:13;;;;;;;5.97;4.20;;;5.00;99.90;;;;;;4992135;28;20230;-61
2023/11/02 02:58:45;;;;;;;4.73;4.33;;;5.10;99.90;;;;;;4990433;28;20206;-61
2023/11/02 03:01:15;;;;;;;5.70;5.00;;;5.10;99.90;;;;;;4991707;28;20202;-61
2023/11/02 03:03:43;;;;;;;4.57;4.17;;;5.10;99.90;;;;;;4972591;28;20227;-61
2023/11/02 03:06:11;;;;;;;5.40;5.00;;;5.10;99.90;;;;;;4983598;28;20259;-61
2023/11/02 03:08:43;;;;;;;3.90;3.63;;;5.10;99.90;;;;;;4992129;28;20264;-61
2023/11/02 03:11:11;;;;;;;4.23;3.83;;;5.10;99.90;;;;;;4991041;28;20639;-61
2023/11/02 03:13:41;;;;;;;5.43;3.67;;;5.20;99.90;;;;;;4991133;28;20202;-61
2023/11/02 03:16:12;;;;;;;2.63;2.43;;;5.20;99.90;;;;;;4976337;28;20218;-61
2023/11/02 03:18:40;;;;;;;3.47;3.27;;;5.30;99.90;;;;;;4972573;28;20219;-61
2023/11/02 03:21:07;;;;;;;2.30;2.10;;;5.50;99.90;;;;;;4979636;28;20262;-62
2023/11/02 03:23:49;;;;;;;1.47;1.37;;;5.50;99.90;;;;;;4992782;28;20239;-61
2023/11/02 03:26:26;;;;;;;2.43;1.10;;;5.60;99.90;;;;;;4980778;28;20226;-60
2023/11/02 03:29:04;;;;;;;1.40;0.80;;;5.80;99.90;;;;;;4991895;28;20206;-61
2023/11/02 03:31:46;;;;;;;2.73;1.27;;;6.00;99.90;;;;;;4991892;28;20268;-61
2023/11/02 03:34:20;;;;;;;1.87;0.77;;;6.00;99.90;;;;;;4991815;28;20647;-61
2023/11/02 03:37:07;;;;;;;0.83;0.57;;;6.00;99.90;;;;;;4990094;28;20248;-61
2023/11/02 03:39:48;;;;;;;1.80;1.13;;;6.20;99.90;;;;;;4991568;28;20197;-61
2023/11/02 03:42:22;;;;;;;0.67;0.67;;;6.20;99.90;;;;;;4991832;28;20682;-61
2023/11/02 03:44:58;;;;;;;0.50;0.50;;;6.20;99.90;;;;;;4994084;28;20674;-61
2023/11/02 03:47:36;;;;;;;2.83;1.67;;;6.20;99.90;;;;;;4995127;28;20226;-61
2023/11/02 03:50:14;;;;;;;5.33;2.57;;;6.20;99.90;;;;;;4994145;28;20201;-61
2023/11/02 03:52:52;;;;;;;2.07;1.17;;;6.40;99.90;;;;;;4987550;28;20272;-61
2023/11/02 03:55:37;;;;;;;0.70;0.70;;;6.50;99.90;;;;;;4994354;28;20213;-61
2023/11/02 03:58:31;;;;;;;0.63;0.53;;;6.50;99.90;;;;;;4986781;28;20207;-62
2023/11/02 04:01:06;;;;;;;0.67;0.67;;;6.50;99.90;;;;;;4990912;28;20202;-61
2023/11/02 04:03:33;;;;;;;0.63;0.63;;;6.50;99.90;;;;;;4993484;28;20292;-60
2023/11/02 04:06:03;;;;;;;0.50;0.50;;;6.60;99.90;;;;;;4993696;28;20248;-61
2023/11/02 04:08:38;;;;;;;1.97;0.60;;;6.60;99.90;;;;;;4995115;28;20214;-61
2023/11/02 04:11:24;;;;;;;1.00;0.77;;;6.60;99.90;;;;;;4994456;28;20646;-61
2023/11/02 04:14:12;;;;;;;2.97;1.37;;;6.60;99.90;;;;;;4992267;28;20251;-61
2023/11/02 04:16:39;;;;;;;6.47;4.37;;;6.70;99.90;;;;;;4994470;28;20280;-61
2023/11/02 04:19:06;;;;;;;5.57;2.03;;;6.60;99.90;;;;;;4994604;28;20204;-61
2023/11/02 04:21:34;;;;;;;4.17;1.77;;;6.60;99.90;;;;;;4992805;28;20256;-61
2023/11/02 04:24:01;;;;;;;2.93;1.53;;;6.70;99.90;;;;;;4993326;28;20266;-61
2023/11/02 04:26:31;;;;;;;4.03;2.10;;;6.70;99.90;;;;;;4992033;28;20226;-60
2023/11/02 04:28:59;;;;;;;18.17;6.77;;;6.70;99.90;;;;;;4994801;28;20209;-61
2023/11/02 04:31:27;;;;;;;5.13;3.53;;;6.80;99.90;;;;;;4991079;28;20222;-61
2023/11/02 04:33:54;;;;;;;1.73;0.63;;;6.80;99.90;;;;;;4993882;28;20198;-61
2023/11/02 04:36:25;;;;;;;0.80;0.80;;;6.90;99.90;;;;;;4994021;28;20300;-61
2023/11/02 04:38:52;;;;;;;0.70;0.70;;;7.00;99.90;;;;;;4994020;28;20209;-62
2023/11/02 04:41:20;;;;;;;0.97;0.67;;;6.90;99.90;;;;;;4991728;28;20666;-61
2023/11/02 04:43:48;;;;;;;5.53;0.80;;;6.90;99.90;;;;;;4993383;28;20207;-61
2023/11/02 04:46:15;;;;;;;0.97;0.80;;;7.00;99.90;;;;;;4994123;28;20222;-61
2023/11/02 04:48:42;;;;;;;0.47;0.43;;;7.00;99.90;;;;;;4993836;28;20260;-61
2023/11/02 04:51:09;;;;;;;1.60;0.40;;;7.10;99.90;;;;;;4993620;28;20631;-62
2023/11/02 04:53:36;;;;;;;13.17;5.87;;;7.10;99.90;;;;;;4990416;28;20244;-61
2023/11/02 04:56:04;;;;;;;1.80;0.63;;;7.20;99.90;;;;;;4993797;28;20221;-61
2023/11/02 04:58:31;;;;;;;0.23;0.20;;;7.30;99.90;;;;;;4993314;28;20232;-61
2023/11/02 05:00:59;;;;;;;0.20;0.20;;;7.40;99.90;;;;;;4997533;28;20211;-61
2023/11/02 05:03:27;;;;;;;2.60;0.30;;;7.40;99.90;;;;;;4992127;28;20205;-61
2023/11/02 05:05:54;;;;;;;1.47;0.20;;;7.20;99.90;;;;;;4996215;28;20696;-62
2023/11/02 05:08:22;;;;;;;0.20;0.20;;;7.10;99.90;;;;;;4994287;28;20261;-61
2023/11/02 05:10:49;;;;;;;1.40;0.40;;;7.10;99.90;;;;;;4990671;28;20693;-61
2023/11/02 05:13:16;;;;;;;0.53;0.30;;;7.10;99.90;;;;;;4989685;28;20596;-61
2023/11/02 05:15:43;;;;;;;0.80;0.30;;;7.10;99.90;;;;;;4992495;28;20721;-61
2023/11/02 05:18:11;;;;;;;0.30;0.30;;;7.10;99.90;;;;;;4993290;28;20205;-61
2023/11/02 05:20:38;;;;;;;0.20;0.20;;;7.00;99.90;;;;;;4992992;28;20216;-62
2023/11/02 05:23:09;;;;;;;0.50;0.50;;;7.00;99.90;;;;;;4993575;28;20209;-62
2023/11/02 05:25:36;;;;;;;0.33;0.33;;;7.00;99.90;;;;;;4992891;28;20314;-61
2023/11/02 05:28:03;;;;;;;2.33;0.50;;;6.90;99.90;;;;;;4993082;28;20205;-61
2023/11/02 05:30:30;;;;;;;0.60;0.60;;;6.90;99.90;;;;;;4989828;28;20213;-61
2023/11/02 05:32:57;;;;;;;0.77;0.77;;;6.90;99.90;;;;;;4987178;28;20222;-61
2023/11/02 05:35:25;;;;;;;3.47;2.63;;;6.80;99.90;;;;;;4987877;28;20279;-61
2023/11/02 05:37:52;;;;;;;3.40;2.50;;;7.00;99.90;;;;;;4990859;28;20197;-60
2023/11/02 05:40:19;;;;;;;1.40;1.30;;;7.00;99.90;;;;;;4992560;28;20213;-61
2023/11/02 05:42:46;;;;;;;1.70;1.60;;;7.00;99.90;;;;;;4991222;28;20325;-62
2023/11/02 05:45:13;;;;;;;1.80;1.30;;;7.10;99.90;;;;;;4990361;28;20210;-62
2023/11/02 05:47:40;;;;;;;2.30;2.10;;;7.10;99.90;;;;;;4980137;28;20292;-62
2023/11/02 05:50:08;;;;;;;2.50;1.50;;;7.00;99.90;;;;;;4992675;28;20209;-62
2023/11/02 05:52:36;;;;;;;1.53;1.43;;;7.00;99.90;;;;;;4992580;28;20228;-61
2023/11/02 05:55:05;;;;;;;2.10;1.70;;;7.00;99.90;;;;;;4991642;28;20740;-61
2023/11/02 05:57:32;;;;;;;3.17;2.00;;;7.00;99.90;;;;;;4992635;28;20208;-62
2023/11/02 05:59:59;;;;;;;1.33;1.20;;;7.00;99.90;;;;;;4992520;28;20307;-61
2023/11/02 06:02:28;;;;;;;1.33;1.23;;;7.00;99.90;;;;;;4991289;28;20201;-61
2023/11/02 06:04:55;;;;;;;0.90;0.90;;;7.10;99.90;;;;;;4992282;28;20257;-61
2023/11/02 06:07:22;;;;;;;1.60;0.80;;;7.10;99.90;;;;;;4990867;28;20315;-62
2023/11/02 06:09:50;;;;;;;1.47;1.00;;;7.10;99.90;;;;;;4992460;28;20252;-62
2023/11/02 06:12:16;;;;;;;1.00;1.00;;;7.10;99.90;;;;;;4992243;28;20284;-61
2023/11/02 06:14:43;;;;;;;0.67;0.67;;;7.00;99.90;;;;;;4991927;28;20656;-62
2023/11/02 06:17:10;;;;;;;1.67;1.13;;;7.00;99.90;;;;;;4996636;28;20230;-61
2023/11/02 06:19:37;;;;;;;1.90;1.67;;;7.00;99.90;;;;;;4990367;28;20252;-61
2023/11/02 06:22:04;;;;;;;4.17;2.00;;;7.00;99.90;;;;;;4992395;28;20260;-62
2023/11/02 06:24:31;;;;;;;4.50;2.73;;;7.00;99.90;;;;;;4990992;28;20205;-62
2023/11/02 06:27:00;;;;;;;5.20;2.70;;;7.00;99.90;;;;;;4992510;28;20639;-61
2023/11/02 06:29:26;;;;;;;3.53;3.23;;;7.90;99.90;;;;;;4992423;28;20209;-62
2023/11/02 06:31:53;;;;;;;3.03;2.43;;;7.00;99.90;;;;;;4992580;28;20225;-62
2023/11/02 06:34:20;;;;;;;5.60;3.83;;;7.00;99.90;;;;;;4991968;28;20258;-61
2023/11/02 06:36:47;;;;;;;3.73;2.33;;;7.10;99.90;;;;;;4991005;28;20233;-62
2023/11/02 06:39:20;;;;;;;3.50;1.83;;;7.10;99.90;;;;;;5041406;23;20241;-58
2023/11/02 06:41:50;;;;;;;2.10;1.83;;;7.30;99.90;;;;;;4952613;28;20207;-57
2023/11/02 06:44:19;;;;;;;1.30;1.30;;;7.40;99.90;;;;;;4950566;28;20286;-57
2023/11/02 06:46:47;;;;;;;1.30;1.20;;;7.40;99.90;;;;;;4946529;28;20717;-56
2023/11/02 06:49:19;;;;;;;1.70;1.17;;;7.50;99.90;;;;;;4944909;28;20239;-55
2023/11/02 06:51:47;;;;;;;2.53;1.07;;;7.50;99.90;;;;;;4931116;29;20208;-57
2023/11/02 06:54:15;;;;;;;1.47;1.47;;;7.70;99.90;;;;;;4930099;29;20350;-57
2023/11/02 06:56:42;;;;;;;1.60;1.50;;;7.80;99.90;;;;;;4932552;29;20445;-61
2023/11/02 06:59:09;;;;;;;3.17;3.07;;;7.90;99.90;;;;;;4933452;29;20792;-59
2023/11/02 07:01:37;;;;;;;2.47;0.63;;;8.00;99.90;;;;;;4933206;29;20258;-57
2023/11/02 07:04:05;;;;;;;2.00;1.20;;;8.10;99.90;;;;;;4931730;29;20731;-57
2023/11/02 07:06:32;;;;;;;1.80;1.00;;;8.20;99.90;;;;;;4933531;29;20263;-58
2023/11/02 07:08:59;;;;;;;4.07;1.33;;;8.30;99.90;;;;;;4933604;29;20251;-58
2023/11/02 07:11:26;;;;;;;2.67;1.23;;;8.40;99.90;;;;;;4932358;29;20204;-58
2023/11/02 07:13:52;;;;;;;1.43;0.80;;;8.50;99.90;;;;;;4932587;29;20419;-57
2023/11/02 07:16:21;;;;;;;0.77;0.70;;;8.50;99.90;;;;;;4933264;29;20216;-57
2023/11/02 07:18:49;;;;;;;0.40;0.30;;;8.80;99.90;;;;;;4934054;28;20583;-57
2023/11/02 07:21:16;;;;;;;0.70;0.20;;;9.20;99.90;;;;;;4937643;29;20212;-57
2023/11/02 07:23:43;;;;;;;0.10;0.10;;;10.10;99.90;;;;;;4933619;29;20200;-56
2023/11/02 07:26:10;;;;;;;1.70;0.40;;;11.20;99.90;;;;;;4944006;29;20215;-58
2023/11/02 07:28:37;;;;;;;0.97;0.40;;;11.90;99.90;;;;;;4936636;29;20363;-58
2023/11/02 07:31:06;;;;;;;2.67;0.10;;;12.70;99.90;;;;;;4936530;29;20275;-58
2023/11/02 07:33:39;;;;;;;0.00;0.00;;;13.10;99.90;;;;;;4930613;29;20255;-58
2023/11/02 07:36:12;;;;;;;0.10;0.10;;;13.40;99.90;;;;;;4939134;29;20580;-57
2023/11/02 07:38:39;;;;;;;0.73;0.73;;;13.60;99.90;;;;;;4935484;28;20207;-59
2023/11/02 07:41:07;;;;;;;0.40;0.00;;;13.80;99.90;;;;;;4934589;29;20316;-59
2023/11/02 07:43:34;;;;;;;1.03;0.00;;;13.90;99.90;;;;;;4933958;29;20753;-57
2023/11/02 07:46:01;;;;;;;2.30;0.10;;;14.00;99.90;;;;;;4928362;29;20203;-57
2023/11/02 07:48:29;;;;;;;1.90;0.10;;;14.10;99.90;;;;;;4936184;29;20206;-57
2023/11/02 07:50:56;;;;;;;0.00;0.00;;;14.10;99.90;;;;;;4935823;29;20237;-57
2023/11/02 07:53:24;;;;;;;10.57;5.90;;;14.10;99.90;;;;;;4938114;29;20710;-57
2023/11/02 07:55:51;;;;;;;1.37;0.20;;;14.10;99.90;;;;;;4935079;29;20218;-56
2023/11/02 07:58:18;;;;;;;0.30;0.30;;;14.00;99.90;;;;;;4936174;29;20214;-57
2023/11/02 08:00:45;;;;;;;0.00;0.00;;;14.30;99.90;;;;;;4935043;29;20221;-57
2023/11/02 08:03:12;;;;;;;1.03;0.43;;;14.50;99.90;;;;;;4936248;29;20250;-57
2023/11/02 08:05:40;;;;;;;62.60;26.23;;;14.40;99.90;;;;;;4933729;29;20209;-57
2023/11/02 08:08:07;;;;;;;1.37;1.37;;;13.50;99.90;;;;;;4930647;29;20622;-57
2023/11/02 08:10:35;;;;;;;2.73;0.60;;;13.20;99.90;;;;;;4935892;29;20228;-56
2023/11/02 08:13:02;;;;;;;0.30;0.30;;;12.70;99.90;;;;;;4935497;29;20283;-56
2023/11/02 08:15:29;;;;;;;0.43;0.43;;;12.10;99.90;;;;;;4943831;29;20215;-57
2023/11/02 08:17:56;;;;;;;1.17;0.50;;;11.90;99.90;;;;;;4927448;29;20616;-56
2023/11/02 08:20:23;;;;;;;0.70;0.63;;;11.80;99.90;;;;;;4935682;29;20239;-57
2023/11/02 08:22:50;;;;;;;2.20;1.87;;;11.70;99.90;;;;;;4935955;29;20665;-56
2023/11/02 08:25:17;;;;;;;3.43;3.33;;;11.60;99.90;;;;;;4935596;29;20224;-57
2023/11/02 08:27:47;;;;;;;2.00;1.90;;;11.30;99.90;;;;;;4932270;29;20208;-56
2023/11/02 08:30:15;;;;;;;1.10;1.00;;;11.10;99.90;;;;;;4935450;29;20242;-56
2023/11/02 08:32:43;;;;;;;1.13;1.03;;;11.00;99.90;;;;;;4935729;29;20226;-57
2023/11/02 08:35:10;;;;;;;1.07;1.07;;;10.90;99.90;;;;;;4934020;29;20229;-56
2023/11/02 08:37:37;;;;;;;1.00;1.00;;;11.00;99.90;;;;;;4934480;29;20585;-57
2023/11/02 08:40:05;;;;;;;4.67;1.50;;;10.90;99.90;;;;;;4937945;29;20356;-56
2023/11/02 08:42:32;;;;;;;1.47;1.20;;;10.90;99.90;;;;;;4937109;28;20211;-56
2023/11/02 08:45:01;;;;;;;1.50;1.40;;;10.80;99.90;;;;;;4935304;29;20207;-57
2023/11/02 08:47:28;;;;;;;10.70;3.23;;;10.70;99.90;;;;;;4929774;29;20276;-57
2023/11/02 08:49:55;;;;;;;24.83;6.77;;;10.60;99.90;;;;;;4935385;29;20228;-56
2023/11/02 08:52:22;;;;;;;0.87;0.87;;;10.60;99.90;;;;;;4933676;29;20260;-56
2023/11/02 08:54:49;;;;;;;1.40;1.30;;;10.50;99.90;;;;;;4935352;29;20215;-57
2023/11/02 08:57:16;;;;;;;2.60;1.30;;;10.40;99.90;;;;;;4930163;29;20219;-58
2023/11/02 08:59:43;;;;;;;1.30;1.30;;;10.40;99.90;;;;;;4935354;29;20737;-56
2023/11/02 09:02:12;;;;;;;1.07;1.07;;;10.30;99.90;;;;;;4935334;29;20217;-57
2023/11/02 09:04:39;;;;;;;2.33;2.13;;;10.30;99.90;;;;;;4934687;29;20267;-57
2023/11/02 09:07:06;;;;;;;1.50;1.50;;;10.10;99.90;;;;;;4934270;29;20211;-58
2023/11/02 09:09:33;;;;;;;1.60;1.50;;;10.20;99.90;;;;;;4933125;29;20241;-56
2023/11/02 09:12:00;;;;;;;1.97;1.87;;;10.20;99.90;;;;;;4935067;29;20783;-57
2023/11/02 09:14:27;;;;;;;1.20;1.10;;;10.10;99.90;;;;;;4934044;29;20287;-57
2023/11/02 09:16:54;;;;;;;1.30;1.20;;;10.00;99.90;;;;;;4927868;29;20334;-57
2023/11/02 09:19:23;;;;;;;1.97;1.50;;;9.90;99.90;;;;;;4927267;29;20788;-57
2023/11/02 09:21:50;;;;;;;3.03;2.43;;;9.90;99.90;;;;;;4938818;28;20231;-57
2023/11/02 09:24:17;;;;;;;2.13;1.97;;;10.00;99.90;;;;;;4930696;29;20201;-58
2023/11/02 09:26:45;;;;;;;4.43;2.40;;;10.00;99.90;;;;;;4926781;29;20231;-60
2023/11/02 09:29:12;;;;;;;2.20;1.87;;;10.00;99.90;;;;;;4930826;29;20218;-57
2023/11/02 09:31:41;;;;;;;2.27;2.17;;;10.00;99.90;;;;;;4932040;29;20244;-56
2023/11/02 09:34:10;;;;;;;2.73;1.77;;;10.10;99.90;;;;;;4933826;29;20224;-57
2023/11/02 09:36:38;;;;;;;3.60;2.43;;;9.90;99.90;;;;;;4937300;29;20237;-57
2023/11/02 09:39:07;;;;;;;2.23;2.03;;;9.90;99.90;;;;;;4937218;29;20743;-57
2023/11/02 09:41:36;;;;;;;3.03;1.43;;;9.90;99.90;;;;;;4934049;29;20206;-57
2023/11/02 09:44:06;;;;;;;1.97;1.83;;;9.80;99.90;;;;;;4928207;28;20208;-56
2023/11/02 09:46:34;;;;;;;2.93;1.60;;;9.90;99.90;;;;;;4934273;29;20217;-57
2023/11/02 09:49:01;;;;;;;1.30;1.30;;;10.00;99.90;;;;;;4932361;29;20227;-56
2023/11/02 09:51:29;;;;;;;1.47;1.37;;;10.10;99.90;;;;;;4943344;29;20208;-57
2023/11/02 09:53:58;;;;;;;1.33;1.00;;;10.20;99.90;;;;;;4941693;28;20280;-56
2023/11/02 09:56:26;;;;;;;1.10;1.00;;;10.30;99.90;;;;;;4938679;29;20737;-56
2023/11/02 09:58:53;;;;;;;1.90;0.70;;;10.30;99.90;;;;;;4934377;29;20254;-56
2023/11/02 10:01:21;;;;;;;0.63;0.60;;;10.20;99.90;;;;;;4925983;29;20547;-56
2023/11/02 10:03:48;;;;;;;2.30;0.47;;;10.20;99.90;;;;;;4943972;28;20661;-56
2023/11/02 10:06:16;;;;;;;5.03;0.73;;;10.40;99.90;;;;;;4930233;29;20204;-56
2023/11/02 10:08:43;;;;;;;0.50;0.50;;;10.40;99.90;;;;;;4932567;29;20653;-56
2023/11/02 10:11:14;;;;;;;0.83;0.83;;;10.60;99.90;;;;;;4939966;29;20739;-56
2023/11/02 10:13:41;;;;;;;2.87;0.60;;;10.60;99.90;;;;;;4942461;29;20344;-56
2023/11/02 10:16:09;;;;;;;1.57;0.60;;;10.70;99.90;;;;;;4932923;29;20672;-56
2023/11/02 10:18:36;;;;;;;0.40;0.40;;;10.80;99.90;;;;;;4933319;28;20684;-57
2023/11/02 10:21:05;;;;;;;0.80;0.40;;;11.00;99.90;;;;;;4933369;29;20224;-57
2023/11/02 10:23:50;;;;;;;1.80;1.00;;;11.00;99.90;;;;;;4935346;29;20288;-57
2023/11/02 10:26:23;;;;;;;4.83;1.53;;;11.00;99.90;;;;;;4937276;28;20206;-57
2023/11/02 10:28:54;;;;;;;4.20;1.33;;;11.00;99.90;;;;;;4933761;28;20243;-56
2023/11/02 10:31:27;;;;;;;1.30;1.20;;;11.00;99.90;;;;;;4933739;29;20212;-56
2023/11/02 10:33:54;;;;;;;1.90;1.10;;;11.10;99.90;;;;;;4935237;29;20224;-57
2023/11/02 10:36:21;;;;;;;1.07;1.00;;;11.10;99.90;;;;;;4932722;29;20662;-56
2023/11/02 10:38:48;;;;;;;1.40;1.23;;;11.10;99.90;;;;;;4933719;29;20280;-57
2023/11/02 10:41:17;;;;;;;2.50;1.20;;;11.00;99.90;;;;;;4937492;29;20246;-57
2023/11/02 10:43:45;;;;;;;2.63;0.77;;;11.00;99.90;;;;;;4933313;29;20347;-57
2023/11/02 10:46:13;;;;;;;2.97;0.30;;;11.00;99.90;;;;;;4932887;29;20271;-57
2023/11/02 10:48:41;;;;;;;0.40;0.40;;;11.10;99.90;;;;;;4933645;29;20239;-57
2023/11/02 10:51:12;;;;;;;0.23;0.20;;;11.20;99.90;;;;;;4935906;29;20232;-57
2023/11/02 10:53:50;;;;;;;2.20;0.40;;;11.30;99.90;;;;;;4936318;28;20242;-56
2023/11/02 10:56:24;;;;;;;0.80;0.40;;;11.30;99.90;;;;;;4942568;29;20209;-57
2023/11/02 10:58:54;;;;;;;1.77;0.27;;;11.30;99.90;;;;;;4934482;29;20197;-57
2023/11/02 11:01:27;;;;;;;1.77;0.30;;;11.30;99.90;;;;;;4942231;29;20272;-57
2023/11/02 11:03:56;;;;;;;0.20;0.20;;;11.30;99.90;;;;;;4944650;29;20326;-57
2023/11/02 11:06:25;;;;;;;0.23;0.23;;;11.50;99.90;;;;;;4934561;29;20337;-56
2023/11/02 11:08:53;;;;;;;0.20;0.20;;;11.50;99.90;;;;;;4935887;29;20198;-57
2023/11/02 11:11:24;;;;;;;0.30;0.30;;;11.50;99.90;;;;;;4935854;29;20208;-57
2023/11/02 11:13:54;;;;;;;0.67;0.37;;;11.60;99.90;;;;;;4935936;29;20222;-57
2023/11/02 11:16:26;;;;;;;2.93;0.40;;;11.60;99.90;;;;;;4936265;29;20212;-57
2023/11/02 11:18:53;;;;;;;0.20;0.20;;;11.50;99.90;;;;;;4941858;29;20232;-57
2023/11/02 11:21:27;;;;;;;1.43;0.30;;;11.50;99.90;;;;;;4940576;28;20670;-57
2023/11/02 11:23:54;;;;;;;0.37;0.27;;;11.30;99.90;;;;;;4936912;28;20789;-57
2023/11/02 11:26:21;;;;;;;0.73;0.30;;;11.20;99.90;;;;;;4934967;29;20256;-57
2023/11/02 11:28:48;;;;;;;3.23;0.43;;;11.30;99.90;;;;;;4932437;29;20210;-57
2023/11/02 11:31:52;;;;;;;1.57;0.60;;;11.20;99.90;;;;;;4934773;29;20365;-57
2023/11/02 11:34:19;;;;;;;0.23;0.23;;;11.10;99.90;;;;;;4933143;29;20266;-57
2023/11/02 11:36:46;;;;;;;0.90;0.60;;;11.00;99.90;;;;;;4934917;29;20208;-57
2023/11/02 11:39:36;;;;;;;1.30;1.20;;;10.90;99.90;;;;;;4936650;29;20236;-57
2023/11/02 11:42:04;;;;;;;1.47;0.90;;;10.80;99.90;;;;;;4929495;29;20205;-57
2023/11/02 11:44:31;;;;;;;1.20;0.50;;;10.70;99.90;;;;;;4936565;29;20200;-57
2023/11/02 11:47:00;;;;;;;0.97;0.50;;;10.70;99.90;;;;;;4936103;29;20289;-57
2023/11/02 11:49:49;;;;;;;2.10;0.43;;;10.60;99.90;;;;;;4944029;29;20316;-58
2023/11/02 11:52:23;;;;;;;0.40;0.40;;;10.50;99.90;;;;;;4936850;29;20209;-59
2023/11/02 11:54:51;;;;;;;0.50;0.50;;;10.50;99.90;;;;;;4935644;29;20223;-59
2023/11/02 11:57:53;;;;;;;0.47;0.47;;;10.60;99.90;;;;;;4935746;29;20209;-59
2023/11/02 12:00:21;;;;;;;0.70;0.70;;;10.90;99.90;;;;;;4935898;29;20807;-58
2023/11/02 12:02:54;;;;;;;1.23;0.93;;;10.60;99.90;;;;;;4937877;29;20292;-58
2023/11/02 12:05:53;;;;;;;1.60;1.50;;;10.90;99.90;;;;;;4931080;29;20209;-59
2023/11/02 12:08:21;;;;;;;2.10;1.40;;;10.30;99.90;;;;;;4929386;29;20496;-57
2023/11/02 12:10:51;;;;;;;4.13;2.13;;;10.40;99.90;;;;;;4947112;29;20463;-60
2023/11/02 12:13:18;;;;;;;2.10;1.63;;;10.20;99.90;;;;;;4954618;29;20753;-58
2023/11/02 12:15:57;;;;;;;1.90;1.80;;;10.10;99.90;;;;;;4932841;29;20210;-58
2023/11/02 12:18:27;;;;;;;1.77;1.67;;;9.90;99.90;;;;;;4927175;29;20256;-58
2023/11/02 12:20:56;;;;;;;3.97;1.63;;;10.00;99.90;;;;;;4927575;29;20331;-59
2023/11/02 12:23:31;;;;;;;4.07;1.93;;;10.20;99.90;;;;;;4936963;29;20563;-59
2023/11/02 12:25:58;;;;;;;1.70;1.60;;;10.00;99.90;;;;;;4933277;29;20208;-59
2023/11/02 12:28:25;;;;;;;1.40;1.27;;;10.00;99.90;;;;;;4935852;29;20275;-59
2023/11/02 12:30:53;;;;;;;0.73;0.73;;;9.90;99.90;;;;;;4935815;29;20224;-58
2023/11/02 12:33:21;;;;;;;1.40;1.20;;;9.90;99.90;;;;;;4933625;29;20235;-58
2023/11/02 12:35:54;;;;;;;1.53;1.43;;;9.90;99.90;;;;;;4938723;29;20292;-58
2023/11/02 12:38:38;;;;;;;1.70;1.60;;;9.90;99.90;;;;;;4931744;29;20557;-58
2023/11/02 12:41:06;;;;;;;3.40;1.27;;;9.80;99.90;;;;;;4989446;23;20285;-64
2023/11/02 12:43:39;;;;;;;1.27;0.87;;;9.90;99.90;;;;;;4980675;28;20262;-62
2023/11/02 12:46:08;;;;;;;2.50;1.20;;;9.90;99.90;;;;;;4988072;28;20196;-62
2023/11/02 12:48:37;;;;;;;0.73;0.70;;;9.80;99.90;;;;;;4975522;28;20273;-63
2023/11/02 12:51:17;;;;;;;1.27;1.20;;;9.90;99.90;;;;;;4969673;28;20605;-61
2023/11/02 12:53:44;;;;;;;1.23;0.60;;;9.90;99.90;;;;;;4973444;28;20602;-63
2023/11/02 12:56:13;;;;;;;1.30;0.50;;;9.80;99.90;;;;;;4973353;28;20202;-63
2023/11/02 12:58:40;;;;;;;0.83;0.63;;;9.80;99.90;;;;;;4967673;28;20203;-62
2023/11/02 13:01:07;;;;;;;0.70;0.57;;;9.80;99.90;;;;;;4972929;28;20231;-63
2023/11/02 13:03:35;;;;;;;0.63;0.40;;;9.70;99.90;;;;;;4972838;28;20705;-63
2023/11/02 13:06:03;;;;;;;0.87;0.40;;;9.70;99.90;;;;;;4973173;28;20297;-63
2023/11/02 13:08:32;;;;;;;1.37;1.27;;;9.90;99.90;;;;;;4966485;28;20274;-62
2023/11/02 13:11:01;;;;;;;0.80;0.80;;;9.70;99.90;;;;;;4973116;28;20714;-62
2023/11/02 13:13:28;;;;;;;0.80;0.40;;;9.80;99.90;;;;;;4968208;28;20899;-62
2023/11/02 13:15:57;;;;;;;0.20;0.20;;;9.70;99.90;;;;;;4969916;28;20253;-62
2023/11/02 13:18:24;;;;;;;0.30;0.30;;;9.70;99.90;;;;;;4971724;28;20215;-62
2023/11/02 13:20:53;;;;;;;1.10;0.30;;;9.60;99.90;;;;;;4972355;28;20226;-62